Time;durP1;ratioP1;P1;durP2;ratioP2;P2;SDS_P1;SDS_P2;PMS_P1;PMS_P2;Temp;Humidity;BMP_temperature;BMP_pressure;BME280_temperature;BME280_humidity;BME280_pressure;Samples;Min_cycle;Max_cycle;Signal;HPM_P1;HPM_P2
2021/09/15 00:00:51;;;;;;;8.97;6.00;;;16.70;99.90;;;;;;5058213;28;20186;-75
2021/09/15 00:03:17;;;;;;;6.60;6.00;;;16.60;99.90;;;;;;5059818;28;20264;-75
2021/09/15 00:05:42;;;;;;;6.50;6.00;;;16.60;99.90;;;;;;5057839;28;20186;-75
2021/09/15 00:08:08;;;;;;;6.37;5.73;;;16.60;99.90;;;;;;5058000;28;20190;-75
2021/09/15 00:10:34;;;;;;;7.40;5.70;;;16.60;99.90;;;;;;5058571;28;20208;-75
2021/09/15 00:12:59;;;;;;;6.93;6.20;;;16.50;99.90;;;;;;5058046;28;20619;-75
2021/09/15 00:15:25;;;;;;;5.87;5.37;;;16.50;99.90;;;;;;5059915;28;20520;-75
2021/09/15 00:17:51;;;;;;;6.80;6.20;;;16.50;99.90;;;;;;5058367;28;20181;-75
2021/09/15 00:20:16;;;;;;;6.60;6.00;;;16.60;99.90;;;;;;5058345;28;20181;-75
2021/09/15 00:22:42;;;;;;;7.20;6.50;;;16.50;99.90;;;;;;5058615;28;20212;-75
2021/09/15 00:25:08;;;;;;;7.00;6.30;;;16.50;99.90;;;;;;5052927;28;20259;-75
2021/09/15 00:27:34;;;;;;;6.00;5.50;;;16.50;99.90;;;;;;5049967;28;20241;-75
2021/09/15 00:29:59;;;;;;;7.67;6.00;;;16.50;99.90;;;;;;5047699;28;20420;-75
2021/09/15 00:32:26;;;;;;;5.77;5.30;;;16.50;99.90;;;;;;5046322;28;20178;-75
2021/09/15 00:34:52;;;;;;;6.00;5.50;;;16.50;99.90;;;;;;5045522;28;20170;-75
2021/09/15 00:37:18;;;;;;;6.00;5.57;;;16.50;99.90;;;;;;5042756;28;20484;-75
2021/09/15 00:39:43;;;;;;;8.33;6.30;;;16.50;99.90;;;;;;5043852;28;20269;-75
2021/09/15 00:42:10;;;;;;;6.00;5.40;;;16.50;99.90;;;;;;5045102;28;20188;-75
2021/09/15 00:44:36;;;;;;;6.53;5.93;;;16.50;99.90;;;;;;5044843;28;20208;-75
2021/09/15 00:47:02;;;;;;;7.53;6.87;;;16.50;99.90;;;;;;5044879;28;20429;-75
2021/09/15 00:49:28;;;;;;;7.70;6.03;;;16.50;99.90;;;;;;5045520;28;20189;-75
2021/09/15 00:51:54;;;;;;;5.50;5.10;;;16.60;99.90;;;;;;5044681;28;20482;-75
2021/09/15 00:54:20;;;;;;;5.80;5.40;;;16.60;99.90;;;;;;5044014;28;20174;-75
2021/09/15 00:56:45;;;;;;;8.00;6.20;;;16.60;99.90;;;;;;5044213;28;20603;-75
2021/09/15 00:59:11;;;;;;;7.00;6.37;;;16.60;99.90;;;;;;5044430;28;20436;-75
2021/09/15 01:01:37;;;;;;;8.30;6.17;;;16.70;99.90;;;;;;5044132;28;20260;-75
2021/09/15 01:04:03;;;;;;;7.10;6.40;;;16.60;99.90;;;;;;5044618;28;20173;-74
2021/09/15 01:06:31;;;;;;;6.53;6.03;;;16.50;99.90;;;;;;5044511;28;20188;-74
2021/09/15 01:08:58;;;;;;;5.93;5.47;;;16.50;99.90;;;;;;5044669;28;20489;-74
2021/09/15 01:11:24;;;;;;;6.20;5.60;;;16.50;99.90;;;;;;5042746;28;20511;-75
2021/09/15 01:13:50;;;;;;;6.43;5.93;;;16.50;99.90;;;;;;5050390;28;20481;-75
2021/09/15 01:16:16;;;;;;;7.13;6.00;;;16.50;99.90;;;;;;5048777;28;20191;-75
2021/09/15 01:18:41;;;;;;;6.50;5.90;;;16.50;99.90;;;;;;5050240;28;20543;-75
2021/09/15 01:21:08;;;;;;;6.40;5.87;;;16.50;99.90;;;;;;5051267;28;20186;-75
2021/09/15 01:23:34;;;;;;;6.10;5.70;;;16.50;99.90;;;;;;5051588;28;20200;-75
2021/09/15 01:25:59;;;;;;;5.97;5.50;;;16.50;99.90;;;;;;5052252;28;20428;-75
2021/09/15 01:28:25;;;;;;;6.63;5.93;;;16.50;99.90;;;;;;5053132;28;20193;-74
2021/09/15 01:30:51;;;;;;;5.37;4.97;;;16.50;99.90;;;;;;5053193;28;20276;-75
2021/09/15 01:33:19;;;;;;;7.70;6.30;;;16.50;99.90;;;;;;5053632;28;20185;-75
2021/09/15 01:35:45;;;;;;;7.50;5.57;;;16.50;99.90;;;;;;5053250;28;20177;-75
2021/09/15 01:38:12;;;;;;;6.07;5.50;;;16.50;99.90;;;;;;5052901;28;20897;-75
2021/09/15 01:40:38;;;;;;;6.23;5.73;;;16.50;99.90;;;;;;5053918;28;20540;-75
2021/09/15 01:43:05;;;;;;;6.30;5.80;;;16.60;99.90;;;;;;5052784;28;20904;-75
2021/09/15 01:45:31;;;;;;;7.47;6.40;;;16.60;99.90;;;;;;5052555;28;20446;-75
2021/09/15 01:47:57;;;;;;;6.70;6.00;;;16.60;99.90;;;;;;5052159;28;20455;-75
2021/09/15 01:50:23;;;;;;;9.80;5.70;;;16.50;99.90;;;;;;5053004;28;20639;-74
2021/09/15 01:52:49;;;;;;;6.80;6.20;;;16.50;99.90;;;;;;5051581;28;20181;-74
2021/09/15 01:55:26;;;;;;;12.93;6.10;;;16.50;99.90;;;;;;5050648;28;20464;-74
2021/09/15 01:57:53;;;;;;;7.00;6.50;;;16.50;99.90;;;;;;5051817;28;20431;-74
2021/09/15 02:00:19;;;;;;;7.50;6.87;;;16.50;99.90;;;;;;5051922;28;20455;-74
2021/09/15 02:02:49;;;;;;;6.27;5.77;;;16.40;99.90;;;;;;5048715;28;20458;-75
2021/09/15 02:05:16;;;;;;;8.37;6.23;;;16.40;99.90;;;;;;5051628;28;20424;-75
2021/09/15 02:07:42;;;;;;;6.97;6.37;;;16.40;99.90;;;;;;5050529;28;20432;-74
2021/09/15 02:10:08;;;;;;;6.70;6.07;;;16.40;99.90;;;;;;5050500;28;20454;-74
2021/09/15 02:12:34;;;;;;;6.13;5.63;;;16.30;99.90;;;;;;5051650;28;20185;-74
2021/09/15 02:15:00;;;;;;;5.97;5.37;;;16.30;99.90;;;;;;5051074;28;20445;-74
2021/09/15 02:17:26;;;;;;;6.60;5.97;;;16.30;99.90;;;;;;5048153;28;20196;-75
2021/09/15 02:19:51;;;;;;;7.40;6.70;;;16.30;99.90;;;;;;5049807;28;20507;-74
2021/09/15 02:22:17;;;;;;;6.80;6.30;;;16.30;99.90;;;;;;5051910;28;20199;-74
2021/09/15 02:24:43;;;;;;;6.80;6.13;;;16.20;99.90;;;;;;5051421;28;20185;-75
2021/09/15 02:27:09;;;;;;;6.93;6.23;;;16.10;99.90;;;;;;5052655;28;20174;-75
2021/09/15 02:29:34;;;;;;;6.80;6.00;;;16.20;99.90;;;;;;5053649;28;20205;-75
2021/09/15 02:32:00;;;;;;;7.70;6.43;;;16.10;99.90;;;;;;5054800;28;20261;-75
2021/09/15 02:34:25;;;;;;;7.07;6.30;;;16.10;99.90;;;;;;5056302;28;20186;-75
2021/09/15 02:36:51;;;;;;;5.97;5.37;;;16.10;99.90;;;;;;5056437;28;20255;-75
2021/09/15 02:39:17;;;;;;;7.83;5.83;;;16.10;99.90;;;;;;5055513;28;20264;-75
2021/09/15 02:41:42;;;;;;;6.97;5.80;;;16.00;99.90;;;;;;5049131;28;20173;-74
2021/09/15 02:44:08;;;;;;;7.20;6.50;;;16.10;99.90;;;;;;5050176;28;20197;-74
2021/09/15 02:46:34;;;;;;;7.10;6.50;;;16.00;99.90;;;;;;5049226;28;20263;-74
2021/09/15 02:49:00;;;;;;;8.20;7.50;;;16.00;99.90;;;;;;5050110;28;20201;-74
2021/09/15 02:51:26;;;;;;;6.67;6.17;;;16.00;99.90;;;;;;5049837;28;20193;-74
2021/09/15 02:53:52;;;;;;;7.77;6.97;;;16.00;99.90;;;;;;5051205;28;20458;-74
2021/09/15 02:56:18;;;;;;;8.97;7.97;;;16.00;99.90;;;;;;5050686;28;20432;-74
2021/09/15 02:58:43;;;;;;;7.30;6.80;;;16.00;99.90;;;;;;5051671;28;20189;-75
2021/09/15 03:01:09;;;;;;;8.43;7.40;;;16.00;99.90;;;;;;5052740;28;20184;-74
2021/09/15 03:03:35;;;;;;;7.50;6.80;;;16.10;99.90;;;;;;5052782;28;20217;-74
2021/09/15 03:06:01;;;;;;;10.63;7.10;;;16.10;99.90;;;;;;5056136;28;20207;-75
2021/09/15 03:08:26;;;;;;;7.80;7.10;;;16.10;99.90;;;;;;5050996;28;20217;-75
2021/09/15 03:10:52;;;;;;;8.67;7.87;;;16.00;99.90;;;;;;5051807;28;20179;-75
2021/09/15 03:13:18;;;;;;;7.13;6.53;;;15.90;99.90;;;;;;5051240;28;20169;-74
2021/09/15 03:15:44;;;;;;;7.30;6.70;;;15.90;99.90;;;;;;5055266;28;20200;-74
2021/09/15 03:18:09;;;;;;;8.53;7.00;;;15.90;99.90;;;;;;5056249;28;20193;-75
2021/09/15 03:20:35;;;;;;;9.67;7.77;;;16.00;99.90;;;;;;5058726;28;20428;-75
2021/09/15 03:23:01;;;;;;;11.57;7.73;;;16.00;99.90;;;;;;5057320;28;20216;-75
2021/09/15 03:25:27;;;;;;;8.03;7.27;;;15.90;99.90;;;;;;5057713;28;20264;-75
2021/09/15 03:27:52;;;;;;;8.10;7.30;;;15.90;99.90;;;;;;5055082;28;20213;-75
2021/09/15 03:30:18;;;;;;;10.70;7.40;;;15.80;99.90;;;;;;5052274;28;20173;-75
2021/09/15 03:32:44;;;;;;;8.97;8.20;;;15.80;99.90;;;;;;5050543;28;20174;-75
2021/09/15 03:35:10;;;;;;;8.93;8.13;;;15.80;99.90;;;;;;5051786;28;20177;-75
2021/09/15 03:37:37;;;;;;;9.20;8.33;;;15.70;99.90;;;;;;5050847;28;20458;-75
2021/09/15 03:40:03;;;;;;;8.77;7.90;;;15.70;99.90;;;;;;5051709;28;20523;-75
2021/09/15 03:42:29;;;;;;;7.87;7.27;;;15.70;99.90;;;;;;5052185;28;20451;-75
2021/09/15 03:44:55;;;;;;;9.00;8.20;;;15.70;99.90;;;;;;5054862;28;20440;-75
2021/09/15 03:47:20;;;;;;;9.90;9.00;;;15.70;99.90;;;;;;5058440;28;20174;-75
2021/09/15 03:49:46;;;;;;;8.50;7.80;;;15.60;99.90;;;;;;5054292;28;20207;-74
2021/09/15 03:52:12;;;;;;;9.03;8.03;;;15.60;99.90;;;;;;5054485;28;20205;-74
2021/09/15 03:54:38;;;;;;;9.63;8.67;;;15.60;99.90;;;;;;5052784;28;20264;-74
2021/09/15 03:57:04;;;;;;;8.07;7.37;;;15.60;99.90;;;;;;5051464;28;20246;-74
2021/09/15 03:59:29;;;;;;;10.27;8.80;;;15.60;99.90;;;;;;5052189;28;20463;-74
2021/09/15 04:01:55;;;;;;;9.80;8.80;;;15.60;99.90;;;;;;5051942;28;20436;-74
2021/09/15 04:04:21;;;;;;;8.50;7.80;;;15.60;99.90;;;;;;5054010;28;20188;-74
2021/09/15 04:06:47;;;;;;;7.73;7.10;;;15.60;99.90;;;;;;5051512;28;20186;-74
2021/09/15 04:09:12;;;;;;;8.30;7.50;;;15.60;99.90;;;;;;5055517;28;20239;-74
2021/09/15 04:11:38;;;;;;;9.07;8.20;;;15.50;99.90;;;;;;5054638;28;20190;-74
2021/09/15 04:14:04;;;;;;;9.93;9.13;;;15.60;99.90;;;;;;5055896;28;20185;-74
2021/09/15 04:16:30;;;;;;;9.33;8.33;;;15.60;99.90;;;;;;5060842;28;20177;-75
2021/09/15 04:18:56;;;;;;;9.50;7.80;;;15.50;99.90;;;;;;5060354;28;20182;-74
2021/09/15 04:21:21;;;;;;;8.70;7.80;;;15.50;99.90;;;;;;5059492;28;20438;-74
2021/09/15 04:31:47;;;;;;;9.43;8.50;;;15.50;99.90;;;;;;5062337;28;20446;-74
2021/09/15 04:34:13;;;;;;;9.63;8.73;;;15.50;99.90;;;;;;5062526;28;20809;-74
2021/09/15 04:36:38;;;;;;;8.77;7.87;;;15.50;99.90;;;;;;5059717;28;20188;-75
2021/09/15 04:39:04;;;;;;;10.43;9.33;;;15.40;99.90;;;;;;5062893;28;20208;-75
2021/09/15 04:41:30;;;;;;;10.60;8.83;;;15.40;99.90;;;;;;5062889;28;20254;-74
2021/09/15 04:43:55;;;;;;;10.97;9.60;;;15.40;99.90;;;;;;5060340;28;20184;-75
2021/09/15 04:46:21;;;;;;;10.57;9.67;;;15.40;99.90;;;;;;5062774;28;20181;-75
2021/09/15 04:48:47;;;;;;;9.50;8.60;;;15.40;99.90;;;;;;5063065;28;20216;-75
2021/09/15 04:51:13;;;;;;;11.17;9.10;;;15.40;99.90;;;;;;5067164;28;20153;-75
2021/09/15 04:53:39;;;;;;;12.80;9.80;;;15.40;99.90;;;;;;5068041;28;20184;-75
2021/09/15 04:56:05;;;;;;;10.87;8.90;;;15.40;99.90;;;;;;5068203;28;20428;-75
2021/09/15 04:58:30;;;;;;;13.80;8.67;;;15.40;99.90;;;;;;5065865;28;20181;-74
2021/09/15 05:00:56;;;;;;;8.60;7.87;;;15.40;99.90;;;;;;5067115;28;20444;-75
2021/09/15 05:03:23;;;;;;;9.10;8.30;;;15.50;99.90;;;;;;5069208;28;20246;-75
2021/09/15 05:05:48;;;;;;;10.87;8.90;;;15.50;99.90;;;;;;5070029;28;20174;-74
2021/09/15 05:08:14;;;;;;;9.40;8.53;;;15.50;99.90;;;;;;5068860;28;20451;-75
2021/09/15 05:10:40;;;;;;;8.57;7.80;;;15.50;99.90;;;;;;5065334;28;20170;-75
2021/09/15 05:13:05;;;;;;;10.47;9.37;;;15.50;99.90;;;;;;5067546;28;20174;-75
2021/09/15 05:15:31;;;;;;;9.60;8.80;;;15.50;99.90;;;;;;5067988;28;20184;-75
2021/09/15 05:17:57;;;;;;;10.07;9.17;;;15.60;99.90;;;;;;5064390;28;20266;-75
2021/09/15 05:20:22;;;;;;;9.77;8.87;;;15.50;99.90;;;;;;5066789;28;20287;-75
2021/09/15 05:22:50;;;;;;;10.33;9.10;;;15.60;99.90;;;;;;5064882;28;20189;-75
2021/09/15 05:25:17;;;;;;;9.00;8.20;;;15.50;99.90;;;;;;5066554;28;20182;-75
2021/09/15 05:27:43;;;;;;;9.80;8.80;;;15.50;99.90;;;;;;5065570;28;20442;-75
2021/09/15 05:30:11;;;;;;;9.40;8.50;;;15.50;99.90;;;;;;5065209;28;20447;-75
2021/09/15 05:32:37;;;;;;;8.60;7.90;;;15.60;99.90;;;;;;5066067;28;20430;-75
2021/09/15 05:35:04;;;;;;;12.30;9.70;;;15.60;99.90;;;;;;5064243;28;20433;-74
2021/09/15 05:37:30;;;;;;;9.20;8.30;;;15.50;99.90;;;;;;5068547;28;20423;-75
2021/09/15 05:39:55;;;;;;;10.50;9.40;;;15.60;99.90;;;;;;5062427;28;20527;-74
2021/09/15 05:42:21;;;;;;;9.27;8.33;;;15.60;99.90;;;;;;5064292;28;20440;-75
2021/09/15 05:44:47;;;;;;;9.60;8.67;;;15.60;99.90;;;;;;5060309;28;20196;-75
2021/09/15 05:47:12;;;;;;;11.40;9.80;;;15.70;99.90;;;;;;5061426;28;20181;-75
2021/09/15 05:49:38;;;;;;;9.80;8.60;;;15.70;99.90;;;;;;5065152;28;20257;-75
2021/09/15 05:52:04;;;;;;;10.03;9.00;;;15.70;99.90;;;;;;5062668;28;20181;-75
2021/09/15 05:54:30;;;;;;;10.50;8.77;;;15.70;99.90;;;;;;5070341;28;20181;-75
2021/09/15 05:56:55;;;;;;;10.73;9.17;;;15.70;99.90;;;;;;5063973;28;20463;-75
2021/09/15 05:59:21;;;;;;;9.30;8.50;;;15.70;99.90;;;;;;5066566;28;20288;-75
2021/09/15 06:01:46;;;;;;;8.73;7.90;;;15.80;99.90;;;;;;5070520;28;20185;-75
2021/09/15 06:04:12;;;;;;;10.70;8.80;;;15.80;99.90;;;;;;5063324;28;20185;-75
2021/09/15 06:06:38;;;;;;;13.47;9.07;;;15.80;99.90;;;;;;5063666;28;20208;-75
2021/09/15 06:09:04;;;;;;;15.53;8.47;;;15.80;99.90;;;;;;5061559;28;20214;-75
2021/09/15 06:11:30;;;;;;;9.70;8.43;;;15.90;99.90;;;;;;5065142;28;20443;-75
2021/09/15 06:13:56;;;;;;;9.40;8.50;;;15.90;99.90;;;;;;5061141;28;20533;-75
2021/09/15 06:16:22;;;;;;;9.37;8.47;;;15.90;99.90;;;;;;5062016;28;20224;-75
2021/09/15 06:18:48;;;;;;;8.40;7.60;;;15.90;99.90;;;;;;5061924;28;20225;-75
2021/09/15 06:21:14;;;;;;;10.43;8.60;;;16.00;99.90;;;;;;5060178;28;20435;-75
2021/09/15 06:23:41;;;;;;;9.40;8.40;;;16.00;99.90;;;;;;5063196;28;20417;-75
2021/09/15 06:26:06;;;;;;;9.10;8.00;;;16.00;99.90;;;;;;5062515;28;20429;-75
2021/09/15 06:28:32;;;;;;;9.13;8.23;;;16.10;99.90;;;;;;5062715;28;20487;-75
2021/09/15 06:31:00;;;;;;;11.03;9.93;;;16.00;99.90;;;;;;5062821;28;20169;-74
2021/09/15 06:33:26;;;;;;;8.90;8.10;;;16.10;99.90;;;;;;5065940;28;20198;-75
2021/09/15 06:35:52;;;;;;;12.80;9.57;;;16.10;99.90;;;;;;5062961;28;20443;-75
2021/09/15 06:38:18;;;;;;;10.20;9.30;;;16.10;99.90;;;;;;5061275;28;20185;-75
2021/09/15 06:40:44;;;;;;;9.80;8.90;;;16.10;99.90;;;;;;5064511;28;20439;-75
2021/09/15 06:43:09;;;;;;;11.13;8.83;;;16.20;99.90;;;;;;5063612;28;20474;-75
2021/09/15 06:45:35;;;;;;;9.50;8.50;;;16.30;99.90;;;;;;5065119;28;20193;-75
2021/09/15 06:48:01;;;;;;;9.07;8.13;;;16.40;99.90;;;;;;5062015;28;20189;-75
2021/09/15 06:50:27;;;;;;;8.20;7.13;;;16.40;99.90;;;;;;5059910;28;20181;-75
2021/09/15 06:52:52;;;;;;;7.60;7.00;;;16.40;99.90;;;;;;5060942;28;20182;-75
2021/09/15 06:55:18;;;;;;;10.30;9.30;;;16.50;99.90;;;;;;5066320;28;20189;-76
2021/09/15 06:57:44;;;;;;;9.77;8.77;;;16.50;99.90;;;;;;5062788;28;20174;-75
2021/09/15 07:00:10;;;;;;;8.60;7.77;;;16.50;99.90;;;;;;5061979;28;20185;-75
2021/09/15 07:02:37;;;;;;;8.07;7.37;;;16.50;99.90;;;;;;5063891;28;20798;-75
2021/09/15 07:05:03;;;;;;;9.73;8.80;;;16.50;99.90;;;;;;5065720;28;20400;-75
2021/09/15 07:07:30;;;;;;;10.37;9.30;;;16.60;99.90;;;;;;5061112;28;20456;-75
2021/09/15 07:09:55;;;;;;;10.50;9.50;;;16.50;99.90;;;;;;5058105;28;20533;-75
2021/09/15 07:12:22;;;;;;;9.87;8.47;;;16.50;99.90;;;;;;5058151;28;20165;-75
2021/09/15 07:14:47;;;;;;;11.10;8.90;;;16.40;99.90;;;;;;5056935;28;20599;-75
2021/09/15 07:17:13;;;;;;;11.10;9.90;;;16.40;99.90;;;;;;5059502;28;20475;-75
2021/09/15 07:19:39;;;;;;;9.63;8.70;;;16.40;99.90;;;;;;5060931;28;20184;-76
2021/09/15 07:22:04;;;;;;;9.43;8.43;;;16.40;99.90;;;;;;5058504;28;21274;-75
2021/09/15 07:24:30;;;;;;;9.60;8.80;;;16.40;99.90;;;;;;5059778;28;20169;-75
2021/09/15 07:26:56;;;;;;;10.90;9.90;;;16.40;99.90;;;;;;5059378;28;20219;-75
2021/09/15 07:29:21;;;;;;;9.43;8.53;;;16.40;99.90;;;;;;5061585;28;20227;-75
2021/09/15 07:31:47;;;;;;;9.70;8.40;;;16.40;99.90;;;;;;5063333;28;20662;-75
2021/09/15 07:34:13;;;;;;;9.80;8.87;;;16.40;99.90;;;;;;5063657;28;20173;-75
2021/09/15 07:36:39;;;;;;;10.50;9.50;;;16.40;99.90;;;;;;5061527;28;20169;-75
2021/09/15 07:39:05;;;;;;;10.47;9.47;;;16.40;99.90;;;;;;5064645;28;20203;-75
2021/09/15 07:41:32;;;;;;;10.97;9.67;;;16.50;99.90;;;;;;5062904;28;20435;-75
2021/09/15 07:43:58;;;;;;;10.23;9.30;;;16.50;99.90;;;;;;5062431;28;20444;-75
2021/09/15 07:46:24;;;;;;;10.90;9.30;;;16.40;99.90;;;;;;5061915;28;20436;-76
2021/09/15 07:48:50;;;;;;;9.60;8.60;;;16.50;99.90;;;;;;5062688;28;20511;-75
2021/09/15 07:51:17;;;;;;;11.93;9.10;;;16.50;99.90;;;;;;5066415;28;20432;-75
2021/09/15 07:53:43;;;;;;;13.10;10.73;;;16.50;99.90;;;;;;5078260;28;20773;-76
2021/09/15 07:56:08;;;;;;;11.70;10.50;;;16.60;99.90;;;;;;5065150;28;20462;-76
2021/09/15 07:58:34;;;;;;;12.53;11.20;;;16.60;99.90;;;;;;5063147;28;20178;-76
2021/09/15 08:01:00;;;;;;;12.10;10.53;;;16.60;99.90;;;;;;5061947;28;20178;-76
2021/09/15 08:03:25;;;;;;;9.60;8.80;;;16.60;99.90;;;;;;5061857;28;20189;-76
2021/09/15 08:05:51;;;;;;;10.40;9.30;;;16.60;99.90;;;;;;5061032;28;20193;-76
2021/09/15 08:08:17;;;;;;;9.10;8.20;;;16.70;99.90;;;;;;5053264;28;20528;-76
2021/09/15 08:10:42;;;;;;;10.90;9.90;;;16.80;99.90;;;;;;5046535;28;20588;-77
2021/09/15 08:13:09;;;;;;;13.90;10.03;;;16.90;99.90;;;;;;5047229;28;20181;-76
2021/09/15 08:15:35;;;;;;;10.67;9.53;;;17.00;99.90;;;;;;5046056;28;20697;-76
2021/09/15 08:18:00;;;;;;;9.70;8.90;;;17.20;99.90;;;;;;5046739;28;20578;-76
2021/09/15 08:20:26;;;;;;;9.63;8.80;;;17.30;99.90;;;;;;5055800;28;20467;-76
2021/09/15 08:22:52;;;;;;;9.93;9.07;;;17.40;99.90;;;;;;5047086;28;20270;-76
2021/09/15 08:25:18;;;;;;;10.70;9.67;;;17.50;99.90;;;;;;5052907;28;20690;-76
2021/09/15 08:27:44;;;;;;;11.90;8.93;;;17.50;99.90;;;;;;5057779;28;20177;-76
2021/09/15 08:30:11;;;;;;;11.00;9.80;;;17.60;99.90;;;;;;5060751;28;20515;-76
2021/09/15 08:32:37;;;;;;;9.70;8.70;;;17.60;99.90;;;;;;5058655;28;20424;-76
2021/09/15 08:35:03;;;;;;;9.90;8.50;;;17.70;99.90;;;;;;5055192;28;20527;-76
2021/09/15 08:37:36;;;;;;;10.00;9.10;;;17.70;99.90;;;;;;5063003;28;20439;-76
2021/09/15 08:40:05;;;;;;;11.30;10.23;;;17.80;99.90;;;;;;5058266;28;20810;-76
2021/09/15 08:42:32;;;;;;;10.30;9.40;;;17.80;99.90;;;;;;5055857;28;20962;-76
2021/09/15 08:44:58;;;;;;;11.17;10.10;;;17.60;99.90;;;;;;5049378;28;20447;-76
2021/09/15 08:47:28;;;;;;;10.60;9.50;;;17.60;99.90;;;;;;5046175;28;20437;-76
2021/09/15 08:49:55;;;;;;;9.53;8.73;;;17.60;99.90;;;;;;5045325;28;20211;-76
2021/09/15 08:52:20;;;;;;;9.60;8.70;;;17.60;99.90;;;;;;5049752;28;20441;-76
2021/09/15 08:54:47;;;;;;;10.93;9.93;;;17.70;99.90;;;;;;5047787;28;20520;-75
2021/09/15 08:57:13;;;;;;;9.77;8.67;;;17.70;99.90;;;;;;5045947;28;20459;-76
2021/09/15 08:59:38;;;;;;;11.80;10.60;;;17.80;99.90;;;;;;5044641;28;20189;-75
2021/09/15 09:02:09;;;;;;;11.67;10.57;;;17.90;99.90;;;;;;5045104;28;20440;-76
2021/09/15 09:05:02;;;;;;;9.00;8.20;;;18.00;99.90;;;;;;5045160;28;20253;-76
2021/09/15 09:07:29;;;;;;;9.50;8.50;;;18.00;99.90;;;;;;5048411;28;20429;-76
2021/09/15 09:09:59;;;;;;;12.43;10.70;;;18.00;99.90;;;;;;5047621;28;20460;-75
2021/09/15 09:12:31;;;;;;;12.63;10.40;;;18.00;99.90;;;;;;5048531;28;20435;-75
2021/09/15 09:15:22;;;;;;;11.60;10.60;;;18.00;99.90;;;;;;5044357;28;20470;-76
2021/09/15 09:17:49;;;;;;;12.10;9.90;;;17.80;99.90;;;;;;5045242;28;20489;-76
2021/09/15 09:20:14;;;;;;;11.83;10.63;;;17.70;99.90;;;;;;5045073;28;20440;-76
2021/09/15 09:23:00;;;;;;;12.07;10.27;;;17.70;99.90;;;;;;5044298;28;20549;-75
2021/09/15 09:25:28;;;;;;;11.33;10.33;;;17.70;99.90;;;;;;5045449;28;20182;-76
2021/09/15 09:27:54;;;;;;;14.80;11.50;;;17.70;99.90;;;;;;5044346;28;20440;-76
2021/09/15 09:30:39;;;;;;;11.90;10.80;;;17.70;99.90;;;;;;5044965;28;20502;-76
2021/09/15 09:33:07;;;;;;;13.47;12.20;;;17.60;99.90;;;;;;5042706;28;20905;-75
2021/09/15 09:35:39;;;;;;;14.10;11.23;;;17.60;99.90;;;;;;5045497;28;20979;-76
2021/09/15 09:38:15;;;;;;;15.30;10.63;;;17.60;99.90;;;;;;5045384;28;20519;-76
2021/09/15 09:41:07;;;;;;;11.53;10.43;;;17.70;99.90;;;;;;5044641;28;20511;-75
2021/09/15 09:43:35;;;;;;;12.47;11.27;;;17.70;99.90;;;;;;5043912;28;20471;-75
2021/09/15 09:46:02;;;;;;;12.67;11.33;;;17.80;99.90;;;;;;5043847;28;20439;-75
2021/09/15 09:48:28;;;;;;;16.00;10.97;;;17.80;99.90;;;;;;5044891;28;20450;-75
2021/09/15 09:50:54;;;;;;;12.00;10.80;;;17.80;99.90;;;;;;5042501;28;20440;-76
2021/09/15 09:53:20;;;;;;;13.63;12.33;;;17.80;99.90;;;;;;5042483;28;20816;-75
2021/09/15 09:55:48;;;;;;;12.87;11.60;;;17.70;99.90;;;;;;5043277;28;20188;-75
2021/09/15 09:58:20;;;;;;;15.67;12.03;;;17.70;99.90;;;;;;5041933;28;20610;-75
2021/09/15 10:00:46;;;;;;;12.70;10.97;;;17.70;99.90;;;;;;5043440;28;20478;-76
2021/09/15 10:03:12;;;;;;;14.27;12.97;;;17.80;99.90;;;;;;5042913;28;20504;-75
2021/09/15 10:05:38;;;;;;;13.37;11.63;;;17.90;99.90;;;;;;5043649;28;20173;-76
2021/09/15 10:08:06;;;;;;;15.17;12.10;;;17.90;99.90;;;;;;5044369;28;20962;-75
2021/09/15 10:10:32;;;;;;;12.73;11.43;;;17.90;99.90;;;;;;5046486;28;20423;-75
2021/09/15 10:12:58;;;;;;;10.40;9.40;;;18.00;99.90;;;;;;5043750;28;20455;-75
2021/09/15 10:15:24;;;;;;;13.00;11.80;;;18.00;99.90;;;;;;5048230;28;20178;-75
2021/09/15 10:17:52;;;;;;;12.97;11.67;;;18.10;99.90;;;;;;5045534;28;20189;-76
2021/09/15 10:20:24;;;;;;;12.27;10.50;;;18.00;99.90;;;;;;5045528;28;20223;-75
2021/09/15 10:22:50;;;;;;;11.50;10.40;;;18.00;99.90;;;;;;5049586;28;20461;-75
2021/09/15 10:25:16;;;;;;;11.67;10.47;;;18.10;99.90;;;;;;5045238;28;20445;-75
2021/09/15 10:28:01;;;;;;;13.40;11.53;;;18.10;99.90;;;;;;5045509;28;20177;-76
2021/09/15 10:30:59;;;;;;;13.83;11.30;;;18.00;99.90;;;;;;5049515;28;20177;-75
2021/09/15 10:33:36;;;;;;;12.07;10.90;;;18.10;99.90;;;;;;5031954;28;20776;-75
2021/09/15 10:36:11;;;;;;;11.30;10.20;;;18.10;99.90;;;;;;5052345;28;20430;-76
2021/09/15 10:38:56;;;;;;;11.77;10.63;;;18.00;99.90;;;;;;5047902;28;20419;-75
2021/09/15 10:41:33;;;;;;;11.70;10.60;;;18.00;99.90;;;;;;5050944;28;20487;-75
2021/09/15 10:44:07;;;;;;;11.47;10.43;;;17.90;99.90;;;;;;5054056;28;20455;-76
2021/09/15 10:46:34;;;;;;;13.40;12.07;;;17.90;99.90;;;;;;5044611;28;20545;-76
2021/09/15 10:49:32;;;;;;;15.73;12.67;;;17.90;99.90;;;;;;5044262;28;20466;-77
2021/09/15 10:52:07;;;;;;;13.37;11.87;;;17.80;99.90;;;;;;5021009;28;20563;-75
2021/09/15 10:54:54;;;;;;;11.80;10.60;;;17.90;99.90;;;;;;5044417;28;20412;-75
2021/09/15 10:57:21;;;;;;;13.73;11.47;;;18.00;99.90;;;;;;5038492;28;21166;-75
2021/09/15 10:59:49;;;;;;;13.30;11.90;;;18.10;99.90;;;;;;5043619;28;20559;-75
2021/09/15 11:02:35;;;;;;;16.27;14.03;;;18.10;99.90;;;;;;5044090;28;20423;-76
2021/09/15 11:05:26;;;;;;;12.47;10.43;;;17.90;99.90;;;;;;5052549;28;20598;-76
2021/09/15 11:07:55;;;;;;;13.70;12.30;;;18.00;99.90;;;;;;5046173;28;20455;-76
2021/09/15 11:10:35;;;;;;;14.83;13.20;;;17.90;99.90;;;;;;5045077;28;20755;-76
2021/09/15 11:13:10;;;;;;;12.03;10.77;;;17.90;99.90;;;;;;5043154;28;20427;-76
2021/09/15 11:15:49;;;;;;;14.60;12.87;;;17.90;99.90;;;;;;5047789;28;20483;-76
2021/09/15 11:18:22;;;;;;;13.27;11.13;;;17.90;99.90;;;;;;5048030;28;20463;-76
2021/09/15 11:20:57;;;;;;;11.93;10.73;;;17.90;99.90;;;;;;5043860;28;20423;-76
2021/09/15 11:23:27;;;;;;;12.60;11.40;;;18.00;99.90;;;;;;5041969;28;20424;-76
2021/09/15 11:25:53;;;;;;;14.40;12.30;;;18.00;99.90;;;;;;5041147;28;20909;-76
2021/09/15 11:28:23;;;;;;;14.53;13.03;;;18.00;99.90;;;;;;5041823;28;20466;-76
2021/09/15 11:30:51;;;;;;;14.47;13.17;;;18.10;99.90;;;;;;5042261;28;20934;-76
2021/09/15 11:33:37;;;;;;;12.80;11.50;;;18.10;99.90;;;;;;5039040;28;20435;-77
2021/09/15 11:36:04;;;;;;;14.07;12.77;;;18.20;99.90;;;;;;5042094;28;20417;-75
2021/09/15 11:38:33;;;;;;;14.07;10.10;;;18.10;99.90;;;;;;5041511;28;20829;-76
2021/09/15 11:41:08;;;;;;;11.20;10.10;;;18.10;99.90;;;;;;5042221;28;20404;-77
2021/09/15 11:43:35;;;;;;;12.43;11.13;;;18.10;99.90;;;;;;5041915;28;20986;-76
2021/09/15 11:46:00;;;;;;;15.67;12.73;;;18.10;99.90;;;;;;5041612;28;20423;-76
2021/09/15 11:48:31;;;;;;;13.90;12.33;;;18.10;99.90;;;;;;5024895;28;20482;-77
2021/09/15 11:50:58;;;;;;;17.20;13.30;;;18.00;99.90;;;;;;5040315;28;20427;-77
2021/09/15 11:53:26;;;;;;;14.47;12.60;;;18.00;99.90;;;;;;5039783;28;20510;-76
2021/09/15 11:56:02;;;;;;;16.07;14.37;;;18.00;99.90;;;;;;5039263;28;20444;-77
2021/09/15 11:58:28;;;;;;;16.90;12.93;;;17.90;99.90;;;;;;5037935;28;20438;-76
2021/09/15 12:00:55;;;;;;;14.13;12.30;;;17.80;99.90;;;;;;5042512;28;20424;-76
2021/09/15 12:03:27;;;;;;;17.63;13.43;;;17.80;99.90;;;;;;5044126;28;20428;-76
2021/09/15 12:06:01;;;;;;;16.40;14.80;;;17.80;99.90;;;;;;5042732;28;20959;-76
2021/09/15 12:08:28;;;;;;;14.67;12.67;;;17.80;99.90;;;;;;5048476;28;20447;-76
2021/09/15 12:10:55;;;;;;;16.57;13.90;;;17.80;99.90;;;;;;5049956;28;20933;-77
2021/09/15 12:13:32;;;;;;;14.07;12.60;;;17.70;99.90;;;;;;5049599;28;20453;-76
2021/09/15 12:15:58;;;;;;;17.50;13.00;;;17.70;99.90;;;;;;5051777;28;20419;-76
2021/09/15 12:18:42;;;;;;;17.03;14.60;;;17.70;99.90;;;;;;5044654;28;20432;-75
2021/09/15 12:21:16;;;;;;;17.27;14.17;;;17.60;99.90;;;;;;5056943;28;20447;-76
2021/09/15 12:23:42;;;;;;;14.63;13.13;;;17.60;99.90;;;;;;5053609;28;20926;-76
2021/09/15 12:26:08;;;;;;;15.40;13.50;;;17.60;99.90;;;;;;5056466;28;20431;-76
2021/09/15 12:28:33;;;;;;;14.90;13.40;;;17.60;99.90;;;;;;5052980;28;20607;-75
2021/09/15 12:31:01;;;;;;;16.40;13.83;;;17.60;99.90;;;;;;5048557;28;20595;-75
2021/09/15 12:33:38;;;;;;;14.67;12.80;;;17.50;99.90;;;;;;5045881;28;20698;-75
2021/09/15 12:36:20;;;;;;;18.20;14.60;;;17.50;99.90;;;;;;5045845;28;20432;-75
2021/09/15 12:39:01;;;;;;;15.80;13.70;;;17.50;99.90;;;;;;5043456;28;20454;-75
2021/09/15 12:41:48;;;;;;;18.10;14.90;;;17.50;99.90;;;;;;5047197;28;20432;-75
2021/09/15 12:44:14;;;;;;;16.63;13.07;;;17.50;99.90;;;;;;5046611;28;20455;-76
2021/09/15 12:46:50;;;;;;;18.43;16.10;;;17.40;99.90;;;;;;5042504;28;20446;-76
2021/09/15 12:49:29;;;;;;;16.87;15.03;;;17.50;99.90;;;;;;5043466;28;20205;-75